createdAt,value
2023-05-01T00:01:53.619Z,11.43
2023-05-01T00:04:23.589Z,11.43
2023-05-01T00:06:52.001Z,11.40
2023-05-01T00:09:20.470Z,11.44
2023-05-01T00:11:48.634Z,11.41
2023-05-01T00:14:16.612Z,11.36
2023-05-01T00:16:46.357Z,11.38
2023-05-01T00:19:18.495Z,11.34
2023-05-01T00:21:48.503Z,11.36
2023-05-01T00:24:17.327Z,11.38
2023-05-01T00:26:45.705Z,11.35
2023-05-01T00:29:14.473Z,11.35
2023-05-01T00:31:43.540Z,11.36
2023-05-01T00:34:11.835Z,11.34
2023-05-01T00:36:39.992Z,11.34
2023-05-01T00:39:09.928Z,11.34
2023-05-01T00:41:38.344Z,11.32
2023-05-01T00:44:06.828Z,11.35
2023-05-01T00:46:35.556Z,11.32
2023-05-01T00:49:04.058Z,11.34
2023-05-01T00:51:33.165Z,11.33
2023-05-01T00:54:01.660Z,11.37
2023-05-01T00:56:32.185Z,11.35
2023-05-01T00:59:01.184Z,11.38
2023-05-01T01:01:29.771Z,11.38
2023-05-01T01:03:58.214Z,11.37
2023-05-01T01:06:32.443Z,11.40
2023-05-01T01:09:08.081Z,11.38
2023-05-01T01:11:42.085Z,11.39
2023-05-01T01:14:13.264Z,11.40
2023-05-01T01:16:46.536Z,11.37
2023-05-01T01:19:30.556Z,11.42
2023-05-01T01:22:03.943Z,11.41
2023-05-01T01:24:47.846Z,11.40
2023-05-01T01:27:45.364Z,11.42
2023-05-01T01:30:27.912Z,11.36
2023-05-01T01:33:02.227Z,11.37
2023-05-01T01:35:33.268Z,11.30
2023-05-01T01:38:02.983Z,11.38
2023-05-01T01:40:34.940Z,11.31
2023-05-01T01:43:05.114Z,11.31
2023-05-01T01:45:35.971Z,11.34
2023-05-01T01:48:04.396Z,11.32
2023-05-01T01:50:36.536Z,11.32
2023-05-01T01:53:06.629Z,11.31
2023-05-01T01:55:37.559Z,11.27
2023-05-01T01:58:07.381Z,11.28
2023-05-01T02:00:36.668Z,11.28
2023-05-01T02:03:05.004Z,11.21
2023-05-01T02:05:35.865Z,11.26
2023-05-01T02:08:05.540Z,11.27
2023-05-01T02:10:34.737Z,11.19
2023-05-01T02:13:03.117Z,11.22
2023-05-01T02:15:31.840Z,11.22
2023-05-01T02:18:02.850Z,11.16
2023-05-01T02:20:31.583Z,11.08
2023-05-01T02:23:01.292Z,11.07
2023-05-01T02:25:33.098Z,11.05
2023-05-01T02:28:03.188Z,11.02
2023-05-01T02:30:31.696Z,11.00
2023-05-01T02:33:00.857Z,10.97
2023-05-01T02:35:29.129Z,11.02
2023-05-01T02:37:57.441Z,11.03
2023-05-01T02:40:27.923Z,10.99
2023-05-01T02:42:58.986Z,11.02
2023-05-01T02:45:27.193Z,11.03
2023-05-01T02:47:57.675Z,11.06
2023-05-01T02:50:26.622Z,11.04
2023-05-01T02:52:55.398Z,11.04
2023-05-01T02:55:35.506Z,11.02
2023-05-01T02:58:03.606Z,11.03
2023-05-01T03:00:31.834Z,11.06
2023-05-01T03:03:00.315Z,11.06
2023-05-01T03:05:28.782Z,10.98
2023-05-01T03:07:57.210Z,10.95
2023-05-01T03:10:25.256Z,11.01
2023-05-01T03:12:55.069Z,11.04
2023-05-01T03:15:23.177Z,11.06
2023-05-01T03:17:51.934Z,11.05
2023-05-01T03:20:20.077Z,11.01
2023-05-01T03:22:48.183Z,10.99
2023-05-01T03:25:16.408Z,11.03
2023-05-01T03:27:44.604Z,11.00
2023-05-01T03:30:14.571Z,10.97
2023-05-01T03:32:43.609Z,10.98
2023-05-01T03:35:19.684Z,11.00
2023-05-01T03:37:48.070Z,10.99
2023-05-01T03:40:27.817Z,10.97
2023-05-01T03:43:34.450Z,10.99
2023-05-01T03:46:09.617Z,11.00
2023-05-01T03:48:38.222Z,10.93
2023-05-01T03:51:06.804Z,10.95
2023-05-01T03:53:36.794Z,10.97
2023-05-01T03:56:07.709Z,10.99
2023-05-01T03:58:36.325Z,10.91
2023-05-01T04:01:05.694Z,10.99
2023-05-01T04:03:37.514Z,10.97
2023-05-01T04:06:06.449Z,10.97
2023-05-01T04:08:34.563Z,10.98
2023-05-01T04:11:03.068Z,10.94
2023-05-01T04:13:32.336Z,10.92
2023-05-01T04:16:00.562Z,10.94
2023-05-01T04:18:29.238Z,10.91
2023-05-01T04:21:02.087Z,10.95
2023-05-01T04:23:30.417Z,10.94
2023-05-01T04:26:00.862Z,10.92
2023-05-01T04:28:31.152Z,10.96
2023-05-01T04:30:59.441Z,10.97
2023-05-01T04:33:28.486Z,10.95
2023-05-01T04:35:56.886Z,10.92
2023-05-01T04:38:27.137Z,10.87
2023-05-01T04:40:56.822Z,10.89
2023-05-01T04:43:24.997Z,10.88
2023-05-01T04:45:53.432Z,10.87
2023-05-01T04:48:21.886Z,10.82
2023-05-01T04:50:50.330Z,10.86
2023-05-01T04:53:18.861Z,10.91
2023-05-01T04:55:48.788Z,10.93
2023-05-01T04:58:18.707Z,10.93
2023-05-01T05:00:50.611Z,10.96
2023-05-01T05:03:22.827Z,10.96
2023-05-01T05:05:51.144Z,10.95
2023-05-01T05:08:19.254Z,10.85
2023-05-01T05:11:01.292Z,10.87
2023-05-01T05:13:38.706Z,10.80
2023-05-01T05:16:12.634Z,10.80
2023-05-01T05:18:40.934Z,10.84
2023-05-01T05:21:10.661Z,10.81
2023-05-01T05:23:42.107Z,10.78
2023-05-01T05:26:11.832Z,10.86
2023-05-01T05:28:40.942Z,10.82
2023-05-01T05:31:09.627Z,10.81
2023-05-01T05:33:38.786Z,10.84
2023-05-01T05:36:07.755Z,10.86
2023-05-01T05:38:42.580Z,10.86
2023-05-01T05:41:15.190Z,10.82
2023-05-01T05:43:43.752Z,10.86
2023-05-01T05:46:11.973Z,10.84
2023-05-01T05:48:41.625Z,10.92
2023-05-01T05:51:10.869Z,10.87
2023-05-01T05:53:39.285Z,10.81
2023-05-01T05:56:08.379Z,10.82
2023-05-01T05:58:38.020Z,10.88
2023-05-01T06:01:09.408Z,10.91
2023-05-01T06:03:39.733Z,10.89
2023-05-01T06:06:08.015Z,10.97
2023-05-01T06:08:37.820Z,10.96
2023-05-01T06:11:10.212Z,10.94
2023-05-01T06:13:41.565Z,10.98
2023-05-01T06:16:09.809Z,11.03
2023-05-01T06:18:38.084Z,11.10
2023-05-01T06:21:06.834Z,11.11
2023-05-01T06:23:35.803Z,11.18
2023-05-01T06:26:24.768Z,11.10
2023-05-01T06:28:54.737Z,11.18
2023-05-01T06:31:23.021Z,11.23
2023-05-01T06:33:55.385Z,11.25
2023-05-01T06:36:49.972Z,11.27
2023-05-01T06:39:18.108Z,11.30
2023-05-01T06:41:47.231Z,11.29
2023-05-01T06:44:18.130Z,11.35
2023-05-01T06:46:46.195Z,11.39
2023-05-01T06:49:14.773Z,11.47
2023-05-01T06:51:42.992Z,11.48
2023-05-01T06:54:15.029Z,11.58
2023-05-01T06:56:43.436Z,11.62
2023-05-01T06:59:11.697Z,11.62
2023-05-01T07:01:41.921Z,11.68
2023-05-01T07:04:10.270Z,11.71
2023-05-01T07:06:38.814Z,11.68
2023-05-01T07:09:08.053Z,11.78
2023-05-01T07:11:36.889Z,11.83
2023-05-01T07:14:05.241Z,11.94
2023-05-01T07:16:33.556Z,12.07
2023-05-01T07:19:03.513Z,12.17
2023-05-01T07:21:32.389Z,12.08
2023-05-01T07:24:00.864Z,12.25
2023-05-01T07:26:29.394Z,12.18
2023-05-01T07:28:57.601Z,12.26
2023-05-01T07:31:25.945Z,12.28
2023-05-01T07:33:54.378Z,12.42
2023-05-01T07:36:24.389Z,12.38
2023-05-01T07:38:52.834Z,12.52
2023-05-01T07:41:22.797Z,12.49
2023-05-01T07:43:50.991Z,12.61
2023-05-01T07:46:19.512Z,12.85
2023-05-01T07:48:48.370Z,12.99
2023-05-01T07:51:17.804Z,13.06
2023-05-01T07:53:48.253Z,13.17
2023-05-01T07:56:16.730Z,13.44
2023-05-01T07:58:45.246Z,13.49
2023-05-01T08:01:13.706Z,13.66
2023-05-01T08:03:42.319Z,13.66
2023-05-01T08:06:10.898Z,13.72
2023-05-01T08:08:39.443Z,13.86
2023-05-01T08:11:09.544Z,13.75
2023-05-01T08:13:37.749Z,14.02
2023-05-01T08:16:06.420Z,14.12
2023-05-01T08:18:34.841Z,14.09
2023-05-01T08:21:03.164Z,14.16
2023-05-01T08:23:31.501Z,14.33
2023-05-01T08:26:00.239Z,14.15
2023-05-01T08:28:37.307Z,14.29
2023-05-01T08:31:05.877Z,14.23
2023-05-01T08:33:34.206Z,14.47
2023-05-01T08:36:02.315Z,14.49
2023-05-01T08:38:30.618Z,14.84
2023-05-01T08:41:01.599Z,15.13
2023-05-01T08:43:32.113Z,15.35
2023-05-01T08:46:01.386Z,15.47
2023-05-01T08:48:30.152Z,15.60
2023-05-01T08:50:59.711Z,15.66
2023-05-01T08:53:28.358Z,15.68
2023-05-01T08:55:57.875Z,15.60
2023-05-01T08:58:27.125Z,15.53
2023-05-01T09:00:58.520Z,15.87
2023-05-01T09:03:28.591Z,16.15
2023-05-01T09:05:57.738Z,16.34
2023-05-01T09:08:25.991Z,16.59
2023-05-01T09:10:55.815Z,16.86
2023-05-01T09:13:24.413Z,17.09
2023-05-01T09:15:52.988Z,17.09
2023-05-01T09:18:23.905Z,17.41
2023-05-01T09:20:52.262Z,17.31
2023-05-01T09:23:20.675Z,17.81
2023-05-01T09:25:51.911Z,17.88
2023-05-01T09:28:20.689Z,17.72
2023-05-01T09:30:49.190Z,17.43
2023-05-01T09:33:18.346Z,17.53
2023-05-01T09:35:55.454Z,17.37
2023-05-01T09:38:24.521Z,17.23
2023-05-01T09:40:54.259Z,17.39
2023-05-01T09:43:26.947Z,17.20
2023-05-01T09:46:03.902Z,17.32
2023-05-01T09:48:34.982Z,17.77
2023-05-01T09:51:21.048Z,18.22
2023-05-01T09:53:49.478Z,18.27
2023-05-01T09:56:18.074Z,18.79
2023-05-01T09:58:46.770Z,18.87
2023-05-01T10:01:15.629Z,18.98
2023-05-01T10:03:45.072Z,18.77
2023-05-01T10:06:27.429Z,18.48
2023-05-01T10:08:55.782Z,18.42
2023-05-01T10:11:24.279Z,18.68
2023-05-01T10:14:09.855Z,18.76
2023-05-01T10:16:39.106Z,18.61
2023-05-01T10:19:07.940Z,18.47
2023-05-01T10:21:38.112Z,18.70
2023-05-01T10:24:07.983Z,18.56
2023-05-01T10:26:36.756Z,18.91
2023-05-01T10:29:05.655Z,19.02
2023-05-01T10:31:34.028Z,19.14
2023-05-01T10:34:02.955Z,19.25
2023-05-01T10:36:34.306Z,19.50
2023-05-01T10:39:04.492Z,19.42
2023-05-01T10:41:59.970Z,19.26
2023-05-01T10:44:28.781Z,19.65
2023-05-01T10:46:57.300Z,19.66
2023-05-01T10:49:25.894Z,19.57
2023-05-01T10:52:01.182Z,19.85
2023-05-01T10:54:32.540Z,19.63
2023-05-01T10:57:01.577Z,20.49
2023-05-01T10:59:29.953Z,20.80
2023-05-01T11:01:58.299Z,21.05
2023-05-01T11:04:45.643Z,21.22
2023-05-01T11:07:18.102Z,21.08
2023-05-01T11:09:49.378Z,21.21
2023-05-01T11:12:37.902Z,21.16
2023-05-01T11:15:08.539Z,21.10
2023-05-01T11:17:46.719Z,21.20
2023-05-01T11:20:15.454Z,21.35
2023-05-01T11:22:47.813Z,21.44
2023-05-01T11:25:21.349Z,21.55
2023-05-01T11:27:49.903Z,21.32
2023-05-01T11:30:18.396Z,21.21
2023-05-01T11:32:47.364Z,21.21
2023-05-01T11:35:19.741Z,21.19
2023-05-01T11:37:48.496Z,20.96
2023-05-01T11:40:25.744Z,20.68
2023-05-01T11:43:02.976Z,20.59
2023-05-01T11:45:31.960Z,20.44
2023-05-01T11:48:03.542Z,20.52
2023-05-01T11:50:36.295Z,20.34
2023-05-01T11:53:05.355Z,20.37
2023-05-01T11:55:35.921Z,20.37
2023-05-01T11:58:05.114Z,20.37
2023-05-01T12:00:37.002Z,20.63
2023-05-01T12:03:06.588Z,20.51
2023-05-01T12:05:37.368Z,21.05
2023-05-01T12:08:12.738Z,21.52
2023-05-01T12:10:43.631Z,21.85
2023-05-01T12:13:13.132Z,21.97
2023-05-01T12:15:43.764Z,22.40
2023-05-01T12:18:13.322Z,22.44
2023-05-01T12:20:42.103Z,22.85
2023-05-01T12:23:14.855Z,23.03
2023-05-01T12:25:47.567Z,22.86
2023-05-01T12:28:18.658Z,22.75
2023-05-01T12:30:48.744Z,22.89
2023-05-01T12:33:18.646Z,22.03
2023-05-01T12:35:48.943Z,22.54
2023-05-01T12:38:20.217Z,22.10
2023-05-01T12:40:54.434Z,22.10
2023-05-01T12:43:23.389Z,21.84
2023-05-01T12:45:53.989Z,21.47
2023-05-01T12:48:22.727Z,21.45
2023-05-01T12:50:55.051Z,21.41
2023-05-01T12:53:24.361Z,21.53
2023-05-01T12:55:55.069Z,21.56
2023-05-01T12:58:23.675Z,21.49
2023-05-01T13:00:53.161Z,21.27
2023-05-01T13:03:24.351Z,21.54
2023-05-01T13:05:56.668Z,21.10
2023-05-01T13:08:27.384Z,21.45
2023-05-01T13:10:58.048Z,21.51
2023-05-01T13:13:27.105Z,21.41
2023-05-01T13:15:56.344Z,21.33
2023-05-01T13:18:24.779Z,21.48
2023-05-01T13:20:56.048Z,21.50
2023-05-01T13:23:24.347Z,21.67
2023-05-01T13:25:58.935Z,21.60
2023-05-01T13:28:30.031Z,21.78
2023-05-01T13:30:58.616Z,21.41
2023-05-01T13:33:26.990Z,21.38
2023-05-01T13:35:55.413Z,21.11
2023-05-01T13:38:25.226Z,20.91
2023-05-01T13:40:53.578Z,21.05
2023-05-01T13:43:24.150Z,20.80
2023-05-01T13:45:52.783Z,20.87
2023-05-01T13:48:23.419Z,20.96
2023-05-01T13:50:54.321Z,21.00
2023-05-01T13:53:25.878Z,21.11
2023-05-01T13:55:54.276Z,21.19
2023-05-01T13:58:24.359Z,21.29
2023-05-01T14:00:52.960Z,21.26
2023-05-01T14:03:22.495Z,21.31
2023-05-01T14:05:51.053Z,21.09
2023-05-01T14:08:22.627Z,21.31
2023-05-01T14:10:51.157Z,21.23
2023-05-01T14:13:20.230Z,21.26
2023-05-01T14:15:50.345Z,21.40
2023-05-01T14:18:18.566Z,21.35
2023-05-01T14:20:49.491Z,20.88
2023-05-01T14:23:20.577Z,21.04
2023-05-01T14:25:50.478Z,20.79
2023-05-01T14:28:18.975Z,20.35
2023-05-01T14:30:49.353Z,20.29
2023-05-01T14:33:19.472Z,20.18
2023-05-01T14:35:51.268Z,19.90
2023-05-01T14:38:20.731Z,19.83
2023-05-01T14:40:49.383Z,19.66
2023-05-01T14:43:18.794Z,19.43
2023-05-01T14:45:49.931Z,19.41
2023-05-01T14:48:22.462Z,19.35
2023-05-01T14:50:51.118Z,19.31
2023-05-01T14:53:19.467Z,19.46
2023-05-01T14:55:51.201Z,19.24
2023-05-01T14:58:19.906Z,19.44
2023-05-01T15:00:48.039Z,19.51
2023-05-01T15:03:17.008Z,19.36
2023-05-01T15:05:47.054Z,19.27
2023-05-01T15:08:17.683Z,19.45
2023-05-01T15:10:46.198Z,19.33
2023-05-01T15:13:14.674Z,19.26
2023-05-01T15:15:42.829Z,19.15
2023-05-01T15:18:11.434Z,19.11
2023-05-01T15:20:39.819Z,19.07
2023-05-01T15:23:10.571Z,19.10
2023-05-01T15:25:38.653Z,18.92
2023-05-01T15:28:06.830Z,18.82
2023-05-01T15:30:35.146Z,18.79
2023-05-01T15:33:04.601Z,18.74
2023-05-01T15:35:32.821Z,18.77
2023-05-01T15:38:00.887Z,18.70
2023-05-01T15:40:30.456Z,18.74
2023-05-01T15:42:58.715Z,18.70
2023-05-01T15:45:27.611Z,18.81
2023-05-01T15:47:55.882Z,18.82
2023-05-01T15:50:25.068Z,18.75
2023-05-01T15:52:53.110Z,18.76
2023-05-01T15:55:21.811Z,18.78
2023-05-01T15:57:51.719Z,18.81
2023-05-01T16:00:21.986Z,18.97
2023-05-01T16:02:50.722Z,18.93
2023-05-01T16:05:21.377Z,18.96
2023-05-01T16:07:53.655Z,18.96
2023-05-01T16:10:22.449Z,19.24
2023-05-01T16:12:53.803Z,19.24
2023-05-01T16:15:22.855Z,19.39
2023-05-01T16:17:51.961Z,19.28
2023-05-01T16:20:20.294Z,19.15
2023-05-01T16:22:48.568Z,19.08
2023-05-01T16:25:16.817Z,19.15
2023-05-01T16:27:46.679Z,19.36
2023-05-01T16:30:16.481Z,19.56
2023-05-01T16:32:44.811Z,19.40
2023-05-01T16:35:17.752Z,19.62
2023-05-01T16:37:45.984Z,19.66
2023-05-01T16:40:17.458Z,19.76
2023-05-01T16:42:51.855Z,19.57
2023-05-01T16:45:22.144Z,19.64
2023-05-01T16:47:50.195Z,19.81
2023-05-01T16:50:18.900Z,19.46
2023-05-01T16:52:46.909Z,19.66
2023-05-01T16:55:15.338Z,19.55
2023-05-01T16:57:44.496Z,19.42
2023-05-01T17:00:14.165Z,19.40
2023-05-01T17:02:44.966Z,19.55
2023-05-01T17:05:13.066Z,19.72
2023-05-01T17:07:41.312Z,19.56
2023-05-01T17:10:10.789Z,19.68
2023-05-01T17:12:39.013Z,19.58
2023-05-01T17:15:08.409Z,19.57
2023-05-01T17:17:37.555Z,19.57
2023-05-01T17:20:08.423Z,19.51
2023-05-01T17:22:37.089Z,19.59
2023-05-01T17:25:06.205Z,19.56
2023-05-01T17:27:35.928Z,19.72
2023-05-01T17:30:05.260Z,19.77
2023-05-01T17:32:37.029Z,19.84
2023-05-01T17:35:09.027Z,19.97
2023-05-01T17:37:41.241Z,19.86
2023-05-01T17:40:15.863Z,19.83
2023-05-01T17:42:48.610Z,19.63
2023-05-01T17:45:21.963Z,19.65
2023-05-01T17:47:54.302Z,19.30
2023-05-01T17:50:28.831Z,19.37
2023-05-01T17:53:01.691Z,19.25
2023-05-01T17:55:37.486Z,19.14
2023-05-01T17:58:09.643Z,19.07
2023-05-01T18:00:43.057Z,19.03
2023-05-01T18:03:16.859Z,18.81
2023-05-01T18:05:52.866Z,18.54
2023-05-01T18:08:26.316Z,18.45
2023-05-01T18:11:00.171Z,18.51
2023-05-01T18:13:34.607Z,18.35
2023-05-01T18:16:08.988Z,18.27
2023-05-01T18:18:42.645Z,18.08
2023-05-01T18:21:15.859Z,18.10
2023-05-01T18:23:49.000Z,18.10
2023-05-01T18:26:21.536Z,17.87
2023-05-01T18:28:54.981Z,17.80
2023-05-01T18:31:28.878Z,17.79
2023-05-01T18:34:03.120Z,17.71
2023-05-01T18:36:44.814Z,17.65
2023-05-01T18:39:18.534Z,17.69
2023-05-01T18:41:47.717Z,17.53
2023-05-01T18:44:19.005Z,17.54
2023-05-01T18:46:53.910Z,17.36
2023-05-01T18:49:28.580Z,17.26
2023-05-01T18:52:05.112Z,17.16
2023-05-01T18:54:36.638Z,17.04
2023-05-01T18:57:09.322Z,16.96
2023-05-01T18:59:44.738Z,16.82
2023-05-01T19:02:15.650Z,16.66
2023-05-01T19:07:21.653Z,16.36
2023-05-01T19:09:49.969Z,16.34
2023-05-01T19:12:18.091Z,16.28
2023-05-01T19:14:46.231Z,16.18
2023-05-01T19:17:14.268Z,16.10
2023-05-01T19:19:46.147Z,16.01
2023-05-01T19:22:17.239Z,15.92
2023-05-01T19:24:50.857Z,15.79
2023-05-01T19:27:24.088Z,15.66
2023-05-01T19:29:56.378Z,15.54
2023-05-01T19:32:29.913Z,15.33
2023-05-01T19:35:11.908Z,15.12
2023-05-01T19:37:45.356Z,14.87
2023-05-01T19:40:17.686Z,14.69
2023-05-01T19:42:50.335Z,14.44
2023-05-01T19:45:23.068Z,14.12
2023-05-01T19:47:55.980Z,13.85
2023-05-01T19:50:28.511Z,13.68
2023-05-01T19:53:00.440Z,13.46
2023-05-01T19:55:34.868Z,13.31
2023-05-01T19:58:07.382Z,13.16
2023-05-01T20:00:39.506Z,13.08
2023-05-01T20:03:09.680Z,13.00
2023-05-01T20:05:41.249Z,12.91
2023-05-01T20:08:14.911Z,12.87
2023-05-01T20:10:51.213Z,12.84
2023-05-01T20:13:21.095Z,12.84
2023-05-01T20:15:53.830Z,12.79
2023-05-01T20:18:28.076Z,12.73
2023-05-01T20:21:01.744Z,12.65
2023-05-01T20:23:32.522Z,12.59
2023-05-01T20:26:07.274Z,12.48
2023-05-01T20:28:40.461Z,12.32
2023-05-01T20:31:15.384Z,12.12
2023-05-01T20:33:48.241Z,12.05
2023-05-01T20:36:23.502Z,11.87
2023-05-01T20:38:59.401Z,11.74
2023-05-01T20:41:33.625Z,11.58
2023-05-01T20:44:07.071Z,11.40
2023-05-01T20:46:40.600Z,11.30
2023-05-01T20:49:15.740Z,11.23
2023-05-01T20:51:49.146Z,11.09
2023-05-01T20:54:21.595Z,10.93
2023-05-01T20:56:56.416Z,10.79
2023-05-01T20:59:26.306Z,10.66
2023-05-01T21:01:58.677Z,10.58
2023-05-01T21:04:32.240Z,10.46
2023-05-01T21:07:06.116Z,10.31
2023-05-01T21:09:39.446Z,10.19
2023-05-01T21:12:14.455Z,10.12
2023-05-01T21:14:47.896Z,10.05
2023-05-01T21:17:22.497Z,9.98
2023-05-01T21:19:53.577Z,9.90
2023-05-01T21:22:26.822Z,9.80
2023-05-01T21:24:58.541Z,9.73
2023-05-01T21:27:28.427Z,9.64
2023-05-01T21:29:59.418Z,9.56
2023-05-01T21:32:33.411Z,9.45
2023-05-01T21:35:06.340Z,9.39
2023-05-01T21:37:36.736Z,9.32
2023-05-01T21:40:08.544Z,9.24
2023-05-01T21:42:40.991Z,9.18
2023-05-01T21:45:10.583Z,9.15
2023-05-01T21:47:41.619Z,9.12
2023-05-01T21:50:14.292Z,9.04
2023-05-01T21:52:43.717Z,8.98
2023-05-01T21:55:15.206Z,8.91
2023-05-01T21:57:50.484Z,8.84
2023-05-01T22:00:19.400Z,8.80
2023-05-01T22:02:48.685Z,8.75
2023-05-01T22:05:20.563Z,8.71
2023-05-01T22:07:48.801Z,8.66
2023-05-01T22:10:21.104Z,8.64
2023-05-01T22:12:56.805Z,8.55
2023-05-01T22:15:31.410Z,8.45
2023-05-01T22:18:04.369Z,8.44
2023-05-01T22:20:38.566Z,8.43
2023-05-01T22:23:12.200Z,8.45
2023-05-01T22:25:46.907Z,8.46
2023-05-01T22:28:23.461Z,8.44
2023-05-01T22:30:56.691Z,8.43
2023-05-01T22:33:29.818Z,8.39
2023-05-01T22:35:59.807Z,8.36
2023-05-01T22:38:31.496Z,8.34
2023-05-01T22:41:03.730Z,8.33
2023-05-01T22:43:39.100Z,8.34
2023-05-01T22:46:12.510Z,8.36
2023-05-01T22:48:46.823Z,8.37
2023-05-01T22:51:16.467Z,8.41
2023-05-01T22:53:47.469Z,8.44
2023-05-01T22:56:17.202Z,8.44
2023-05-01T22:58:50.512Z,8.43
2023-05-01T23:01:24.739Z,8.47
2023-05-01T23:03:58.968Z,8.51
2023-05-01T23:06:32.792Z,8.55
2023-05-01T23:09:07.080Z,8.58
2023-05-01T23:11:39.985Z,8.61
2023-05-01T23:14:14.414Z,8.60
2023-05-01T23:16:47.364Z,8.61
2023-05-01T23:19:22.920Z,8.60
2023-05-01T23:22:05.715Z,8.60
2023-05-01T23:24:42.499Z,8.60
2023-05-01T23:27:16.522Z,8.60
2023-05-01T23:29:51.390Z,8.60
2023-05-01T23:32:23.874Z,8.59
2023-05-01T23:34:52.498Z,8.55
2023-05-01T23:37:21.194Z,8.55
2023-05-01T23:39:49.403Z,8.56
2023-05-01T23:42:17.518Z,8.52
2023-05-01T23:44:45.682Z,8.48
2023-05-01T23:47:15.698Z,8.47
2023-05-01T23:49:43.780Z,8.44
2023-05-01T23:52:11.808Z,8.40
2023-05-01T23:54:39.903Z,8.35
2023-05-01T23:57:08.467Z,8.31
2023-05-01T23:59:37.012Z,8.27
